sensor_id;sensor_type;location;lat;lon;timestamp;P1;durP1;ratioP1;P2;durP2;ratioP2
47760;SDS011;33524;55.434;38.520;2022-10-22T00:01:35;11.32;;;6.90;;
47760;SDS011;33524;55.434;38.520;2022-10-22T00:04:08;11.12;;;5.47;;
47760;SDS011;33524;55.434;38.520;2022-10-22T00:06:39;9.10;;;6.00;;
47760;SDS011;33524;55.434;38.520;2022-10-22T00:11:38;11.57;;;5.95;;
47760;SDS011;33524;55.434;38.520;2022-10-22T00:14:06;11.65;;;6.20;;
47760;SDS011;33524;55.434;38.520;2022-10-22T00:16:35;8.73;;;5.15;;
47760;SDS011;33524;55.434;38.520;2022-10-22T00:19:03;8.98;;;5.22;;
47760;SDS011;33524;55.434;38.520;2022-10-22T00:21:34;9.60;;;5.78;;
47760;SDS011;33524;55.434;38.520;2022-10-22T00:24:03;9.95;;;5.82;;
47760;SDS011;33524;55.434;38.520;2022-10-22T00:26:31;10.63;;;5.45;;
47760;SDS011;33524;55.434;38.520;2022-10-22T00:28:58;9.90;;;5.65;;
47760;SDS011;33524;55.434;38.520;2022-10-22T00:31:27;10.27;;;5.60;;
47760;SDS011;33524;55.434;38.520;2022-10-22T00:33:54;9.10;;;5.65;;
47760;SDS011;33524;55.434;38.520;2022-10-22T00:36:22;9.07;;;5.32;;
47760;SDS011;33524;55.434;38.520;2022-10-22T00:38:50;12.23;;;6.18;;
47760;SDS011;33524;55.434;38.520;2022-10-22T00:41:18;8.05;;;6.12;;
47760;SDS011;33524;55.434;38.520;2022-10-22T00:43:56;10.23;;;6.00;;
47760;SDS011;33524;55.434;38.520;2022-10-22T00:46:26;8.93;;;5.87;;
47760;SDS011;33524;55.434;38.520;2022-10-22T00:48:55;8.85;;;5.28;;
47760;SDS011;33524;55.434;38.520;2022-10-22T00:51:26;7.32;;;5.40;;
47760;SDS011;33524;55.434;38.520;2022-10-22T00:53:59;14.55;;;5.60;;
47760;SDS011;33524;55.434;38.520;2022-10-22T00:56:31;10.18;;;5.62;;
47760;SDS011;33524;55.434;38.520;2022-10-22T00:59:00;9.00;;;5.53;;
47760;SDS011;33524;55.434;38.520;2022-10-22T01:01:30;10.40;;;6.00;;
47760;SDS011;33524;55.434;38.520;2022-10-22T01:03:58;12.88;;;6.20;;
47760;SDS011;33524;55.434;38.520;2022-10-22T01:06:28;9.45;;;5.65;;
47760;SDS011;33524;55.434;38.520;2022-10-22T01:28:13;10.43;;;6.15;;
47760;SDS011;33524;55.434;38.520;2022-10-22T01:30:49;11.20;;;6.72;;
47760;SDS011;33524;55.434;38.520;2022-10-22T01:33:20;10.73;;;6.12;;
47760;SDS011;33524;55.434;38.520;2022-10-22T01:35:51;9.68;;;5.62;;
47760;SDS011;33524;55.434;38.520;2022-10-22T01:38:20;9.65;;;6.55;;
47760;SDS011;33524;55.434;38.520;2022-10-22T01:40:51;8.93;;;5.72;;
47760;SDS011;33524;55.434;38.520;2022-10-22T01:43:20;10.80;;;6.32;;
47760;SDS011;33524;55.434;38.520;2022-10-22T01:45:51;11.10;;;6.78;;
47760;SDS011;33524;55.434;38.520;2022-10-22T01:48:29;9.70;;;6.20;;
47760;SDS011;33524;55.434;38.520;2022-10-22T02:04:34;12.13;;;6.95;;
47760;SDS011;33524;55.434;38.520;2022-10-22T02:07:08;14.68;;;7.55;;
47760;SDS011;33524;55.434;38.520;2022-10-22T02:09:40;15.63;;;7.15;;
47760;SDS011;33524;55.434;38.520;2022-10-22T02:12:10;11.88;;;8.45;;
47760;SDS011;33524;55.434;38.520;2022-10-22T02:14:42;11.73;;;7.15;;
47760;SDS011;33524;55.434;38.520;2022-10-22T02:17:14;13.32;;;7.20;;
47760;SDS011;33524;55.434;38.520;2022-10-22T02:22:24;12.23;;;6.72;;
47760;SDS011;33524;55.434;38.520;2022-10-22T02:24:53;10.13;;;6.70;;
47760;SDS011;33524;55.434;38.520;2022-10-22T02:30:33;10.77;;;7.05;;
47760;SDS011;33524;55.434;38.520;2022-10-22T02:35:53;13.95;;;7.85;;
47760;SDS011;33524;55.434;38.520;2022-10-22T02:38:25;12.88;;;7.57;;
47760;SDS011;33524;55.434;38.520;2022-10-22T02:40:54;13.23;;;7.15;;
47760;SDS011;33524;55.434;38.520;2022-10-22T02:43:23;12.75;;;7.00;;
47760;SDS011;33524;55.434;38.520;2022-10-22T02:45:51;14.98;;;8.13;;
47760;SDS011;33524;55.434;38.520;2022-10-22T02:48:20;13.80;;;7.30;;
47760;SDS011;33524;55.434;38.520;2022-10-22T02:50:48;11.70;;;7.30;;
47760;SDS011;33524;55.434;38.520;2022-10-22T02:53:16;16.10;;;7.37;;
47760;SDS011;33524;55.434;38.520;2022-10-22T02:55:45;12.75;;;7.35;;
47760;SDS011;33524;55.434;38.520;2022-10-22T02:58:13;10.65;;;6.22;;
47760;SDS011;33524;55.434;38.520;2022-10-22T03:00:41;11.63;;;6.82;;
47760;SDS011;33524;55.434;38.520;2022-10-22T03:03:09;11.10;;;7.05;;
47760;SDS011;33524;55.434;38.520;2022-10-22T03:05:40;11.57;;;6.75;;
47760;SDS011;33524;55.434;38.520;2022-10-22T03:08:11;10.48;;;6.70;;
47760;SDS011;33524;55.434;38.520;2022-10-22T03:10:39;11.70;;;6.80;;
47760;SDS011;33524;55.434;38.520;2022-10-22T03:13:07;12.77;;;7.30;;
47760;SDS011;33524;55.434;38.520;2022-10-22T03:15:35;12.02;;;7.80;;
47760;SDS011;33524;55.434;38.520;2022-10-22T03:18:03;11.35;;;6.28;;
47760;SDS011;33524;55.434;38.520;2022-10-22T03:20:31;11.38;;;6.90;;
47760;SDS011;33524;55.434;38.520;2022-10-22T03:23:00;10.23;;;6.93;;
47760;SDS011;33524;55.434;38.520;2022-10-22T03:25:29;10.88;;;6.47;;
47760;SDS011;33524;55.434;38.520;2022-10-22T03:28:02;11.68;;;7.40;;
47760;SDS011;33524;55.434;38.520;2022-10-22T03:30:34;10.95;;;6.57;;
47760;SDS011;33524;55.434;38.520;2022-10-22T03:33:02;11.90;;;6.93;;
47760;SDS011;33524;55.434;38.520;2022-10-22T03:35:30;12.23;;;7.05;;
47760;SDS011;33524;55.434;38.520;2022-10-22T03:40:34;13.77;;;7.10;;
47760;SDS011;33524;55.434;38.520;2022-10-22T03:43:02;12.40;;;7.03;;
47760;SDS011;33524;55.434;38.520;2022-10-22T03:45:30;12.95;;;6.72;;
47760;SDS011;33524;55.434;38.520;2022-10-22T03:47:58;11.95;;;6.70;;
47760;SDS011;33524;55.434;38.520;2022-10-22T03:50:26;12.30;;;6.90;;
47760;SDS011;33524;55.434;38.520;2022-10-22T03:52:57;13.00;;;6.95;;
47760;SDS011;33524;55.434;38.520;2022-10-22T03:55:26;10.15;;;6.10;;
47760;SDS011;33524;55.434;38.520;2022-10-22T03:57:54;9.48;;;6.43;;
47760;SDS011;33524;55.434;38.520;2022-10-22T04:00:22;11.32;;;6.30;;
47760;SDS011;33524;55.434;38.520;2022-10-22T04:02:50;16.33;;;7.78;;
47760;SDS011;33524;55.434;38.520;2022-10-22T04:05:21;15.35;;;6.75;;
47760;SDS011;33524;55.434;38.520;2022-10-22T04:07:49;12.43;;;6.93;;
47760;SDS011;33524;55.434;38.520;2022-10-22T04:10:17;13.40;;;7.00;;
47760;SDS011;33524;55.434;38.520;2022-10-22T04:12:46;8.70;;;5.45;;
47760;SDS011;33524;55.434;38.520;2022-10-22T04:15:14;13.00;;;7.87;;
47760;SDS011;33524;55.434;38.520;2022-10-22T04:17:43;12.57;;;7.50;;
47760;SDS011;33524;55.434;38.520;2022-10-22T04:20:11;13.07;;;7.50;;
47760;SDS011;33524;55.434;38.520;2022-10-22T04:22:39;13.25;;;7.43;;
47760;SDS011;33524;55.434;38.520;2022-10-22T04:25:07;9.00;;;5.93;;
47760;SDS011;33524;55.434;38.520;2022-10-22T04:27:35;10.43;;;6.28;;
47760;SDS011;33524;55.434;38.520;2022-10-22T04:30:04;13.25;;;7.22;;
47760;SDS011;33524;55.434;38.520;2022-10-22T04:32:33;14.02;;;7.03;;
47760;SDS011;33524;55.434;38.520;2022-10-22T04:35:01;13.77;;;7.87;;
47760;SDS011;33524;55.434;38.520;2022-10-22T04:37:29;12.00;;;7.32;;
47760;SDS011;33524;55.434;38.520;2022-10-22T04:39:59;12.50;;;7.47;;
47760;SDS011;33524;55.434;38.520;2022-10-22T04:42:28;12.07;;;6.75;;
47760;SDS011;33524;55.434;38.520;2022-10-22T04:44:56;15.32;;;7.37;;
47760;SDS011;33524;55.434;38.520;2022-10-22T04:47:25;13.32;;;8.10;;
47760;SDS011;33524;55.434;38.520;2022-10-22T04:49:53;18.77;;;6.62;;
47760;SDS011;33524;55.434;38.520;2022-10-22T04:52:21;13.48;;;7.40;;
47760;SDS011;33524;55.434;38.520;2022-10-22T04:54:53;12.10;;;7.57;;
47760;SDS011;33524;55.434;38.520;2022-10-22T04:57:21;10.25;;;7.00;;
47760;SDS011;33524;55.434;38.520;2022-10-22T04:59:51;11.35;;;6.57;;
47760;SDS011;33524;55.434;38.520;2022-10-22T05:02:22;11.60;;;6.65;;
47760;SDS011;33524;55.434;38.520;2022-10-22T05:04:51;13.40;;;7.43;;
47760;SDS011;33524;55.434;38.520;2022-10-22T05:07:20;14.55;;;6.53;;
47760;SDS011;33524;55.434;38.520;2022-10-22T05:09:50;12.37;;;6.95;;
47760;SDS011;33524;55.434;38.520;2022-10-22T05:12:19;12.98;;;7.47;;
47760;SDS011;33524;55.434;38.520;2022-10-22T05:14:48;12.82;;;8.05;;
47760;SDS011;33524;55.434;38.520;2022-10-22T05:17:18;14.45;;;8.48;;
47760;SDS011;33524;55.434;38.520;2022-10-22T05:19:46;12.98;;;7.45;;
47760;SDS011;33524;55.434;38.520;2022-10-22T05:22:16;15.18;;;8.07;;
47760;SDS011;33524;55.434;38.520;2022-10-22T05:24:45;12.20;;;7.32;;
47760;SDS011;33524;55.434;38.520;2022-10-22T05:27:15;12.30;;;6.82;;
47760;SDS011;33524;55.434;38.520;2022-10-22T05:29:49;11.10;;;6.90;;
47760;SDS011;33524;55.434;38.520;2022-10-22T05:32:20;11.93;;;6.72;;
47760;SDS011;33524;55.434;38.520;2022-10-22T05:34:50;13.07;;;7.62;;
47760;SDS011;33524;55.434;38.520;2022-10-22T05:37:23;9.23;;;6.43;;
47760;SDS011;33524;55.434;38.520;2022-10-22T05:39:51;9.63;;;6.37;;
47760;SDS011;33524;55.434;38.520;2022-10-22T05:42:39;12.23;;;7.12;;
47760;SDS011;33524;55.434;38.520;2022-10-22T05:45:12;14.45;;;7.90;;
47760;SDS011;33524;55.434;38.520;2022-10-22T05:47:40;10.10;;;6.53;;
47760;SDS011;33524;55.434;38.520;2022-10-22T05:50:10;12.85;;;6.40;;
47760;SDS011;33524;55.434;38.520;2022-10-22T05:52:39;13.62;;;7.15;;
47760;SDS011;33524;55.434;38.520;2022-10-22T05:55:10;13.65;;;7.35;;
47760;SDS011;33524;55.434;38.520;2022-10-22T05:57:40;9.75;;;6.32;;
47760;SDS011;33524;55.434;38.520;2022-10-22T06:00:09;14.57;;;7.20;;
47760;SDS011;33524;55.434;38.520;2022-10-22T06:02:44;12.32;;;6.72;;
47760;SDS011;33524;55.434;38.520;2022-10-22T06:05:17;13.75;;;6.62;;
47760;SDS011;33524;55.434;38.520;2022-10-22T06:07:46;12.15;;;6.30;;
47760;SDS011;33524;55.434;38.520;2022-10-22T06:10:17;12.90;;;7.72;;
47760;SDS011;33524;55.434;38.520;2022-10-22T06:12:55;12.15;;;6.45;;
47760;SDS011;33524;55.434;38.520;2022-10-22T06:15:25;11.05;;;7.30;;
47760;SDS011;33524;55.434;38.520;2022-10-22T06:17:54;14.15;;;7.20;;
47760;SDS011;33524;55.434;38.520;2022-10-22T06:20:24;10.35;;;6.12;;
47760;SDS011;33524;55.434;38.520;2022-10-22T06:22:55;10.77;;;6.72;;
47760;SDS011;33524;55.434;38.520;2022-10-22T06:25:27;13.40;;;7.00;;
47760;SDS011;33524;55.434;38.520;2022-10-22T06:27:58;13.50;;;7.60;;
47760;SDS011;33524;55.434;38.520;2022-10-22T06:30:28;11.05;;;7.30;;
47760;SDS011;33524;55.434;38.520;2022-10-22T06:33:01;15.30;;;7.78;;
47760;SDS011;33524;55.434;38.520;2022-10-22T06:35:30;12.32;;;7.55;;
47760;SDS011;33524;55.434;38.520;2022-10-22T06:38:04;13.07;;;7.30;;
47760;SDS011;33524;55.434;38.520;2022-10-22T06:40:34;11.63;;;7.07;;
47760;SDS011;33524;55.434;38.520;2022-10-22T06:43:05;11.88;;;6.40;;
47760;SDS011;33524;55.434;38.520;2022-10-22T06:45:37;14.82;;;6.70;;
47760;SDS011;33524;55.434;38.520;2022-10-22T06:48:10;10.88;;;6.57;;
47760;SDS011;33524;55.434;38.520;2022-10-22T06:50:43;12.65;;;6.93;;
47760;SDS011;33524;55.434;38.520;2022-10-22T06:53:12;12.05;;;6.70;;
47760;SDS011;33524;55.434;38.520;2022-10-22T06:55:42;10.25;;;6.07;;
47760;SDS011;33524;55.434;38.520;2022-10-22T06:58:12;9.68;;;6.10;;
47760;SDS011;33524;55.434;38.520;2022-10-22T07:00:45;8.98;;;5.95;;
47760;SDS011;33524;55.434;38.520;2022-10-22T07:03:17;11.18;;;6.78;;
47760;SDS011;33524;55.434;38.520;2022-10-22T07:05:48;10.07;;;5.82;;
47760;SDS011;33524;55.434;38.520;2022-10-22T07:08:20;13.27;;;6.62;;
47760;SDS011;33524;55.434;38.520;2022-10-22T07:10:51;9.82;;;5.72;;
47760;SDS011;33524;55.434;38.520;2022-10-22T07:13:28;10.48;;;6.25;;
47760;SDS011;33524;55.434;38.520;2022-10-22T07:16:03;13.23;;;6.35;;
47760;SDS011;33524;55.434;38.520;2022-10-22T07:21:13;10.50;;;6.65;;
47760;SDS011;33524;55.434;38.520;2022-10-22T07:23:47;9.18;;;6.20;;
47760;SDS011;33524;55.434;38.520;2022-10-22T07:26:20;10.45;;;6.60;;
47760;SDS011;33524;55.434;38.520;2022-10-22T07:28:54;10.95;;;6.78;;
47760;SDS011;33524;55.434;38.520;2022-10-22T07:31:31;11.18;;;6.72;;
47760;SDS011;33524;55.434;38.520;2022-10-22T07:34:01;8.93;;;5.57;;
47760;SDS011;33524;55.434;38.520;2022-10-22T07:36:32;9.13;;;6.32;;
47760;SDS011;33524;55.434;38.520;2022-10-22T07:39:04;10.88;;;7.18;;
47760;SDS011;33524;55.434;38.520;2022-10-22T07:41:40;11.98;;;6.70;;
47760;SDS011;33524;55.434;38.520;2022-10-22T07:44:12;10.60;;;7.32;;
47760;SDS011;33524;55.434;38.520;2022-10-22T07:46:46;9.43;;;5.55;;
47760;SDS011;33524;55.434;38.520;2022-10-22T07:49:20;9.93;;;6.00;;
47760;SDS011;33524;55.434;38.520;2022-10-22T07:51:51;10.90;;;6.28;;
47760;SDS011;33524;55.434;38.520;2022-10-22T07:54:21;8.02;;;6.10;;
47760;SDS011;33524;55.434;38.520;2022-10-22T07:56:57;9.82;;;5.50;;
47760;SDS011;33524;55.434;38.520;2022-10-22T07:59:27;10.70;;;5.07;;
47760;SDS011;33524;55.434;38.520;2022-10-22T08:01:56;10.00;;;5.68;;
47760;SDS011;33524;55.434;38.520;2022-10-22T08:04:31;8.52;;;5.30;;
47760;SDS011;33524;55.434;38.520;2022-10-22T08:07:00;12.90;;;6.53;;
47760;SDS011;33524;55.434;38.520;2022-10-22T08:09:31;9.03;;;5.87;;
47760;SDS011;33524;55.434;38.520;2022-10-22T08:12:07;9.32;;;7.00;;
47760;SDS011;33524;55.434;38.520;2022-10-22T08:14:39;9.93;;;5.93;;
47760;SDS011;33524;55.434;38.520;2022-10-22T08:17:11;10.82;;;5.75;;
47760;SDS011;33524;55.434;38.520;2022-10-22T08:19:40;9.73;;;7.05;;
47760;SDS011;33524;55.434;38.520;2022-10-22T08:22:10;11.32;;;7.00;;
47760;SDS011;33524;55.434;38.520;2022-10-22T08:24:44;9.77;;;4.15;;
47760;SDS011;33524;55.434;38.520;2022-10-22T08:27:23;10.50;;;5.22;;
47760;SDS011;33524;55.434;38.520;2022-10-22T08:29:59;8.50;;;5.30;;
47760;SDS011;33524;55.434;38.520;2022-10-22T08:32:34;10.43;;;5.50;;
47760;SDS011;33524;55.434;38.520;2022-10-22T08:37:40;7.55;;;5.53;;
47760;SDS011;33524;55.434;38.520;2022-10-22T08:40:17;10.52;;;6.03;;
47760;SDS011;33524;55.434;38.520;2022-10-22T08:43:04;10.43;;;5.53;;
47760;SDS011;33524;55.434;38.520;2022-10-22T08:45:58;6.00;;;3.77;;
47760;SDS011;33524;55.434;38.520;2022-10-22T08:48:56;7.97;;;4.93;;
47760;SDS011;33524;55.434;38.520;2022-10-22T08:51:41;8.57;;;4.87;;
47760;SDS011;33524;55.434;38.520;2022-10-22T09:06:12;9.32;;;5.45;;
47760;SDS011;33524;55.434;38.520;2022-10-22T09:08:58;8.38;;;4.57;;
47760;SDS011;33524;55.434;38.520;2022-10-22T09:11:39;6.72;;;4.03;;
47760;SDS011;33524;55.434;38.520;2022-10-22T09:14:20;10.57;;;4.47;;
47760;SDS011;33524;55.434;38.520;2022-10-22T09:25:28;6.35;;;3.70;;
47760;SDS011;33524;55.434;38.520;2022-10-22T09:28:01;7.05;;;4.37;;
47760;SDS011;33524;55.434;38.520;2022-10-22T09:30:38;7.10;;;4.37;;
47760;SDS011;33524;55.434;38.520;2022-10-22T09:33:16;4.97;;;2.95;;
47760;SDS011;33524;55.434;38.520;2022-10-22T09:36:00;4.72;;;3.12;;
47760;SDS011;33524;55.434;38.520;2022-10-22T09:38:40;8.00;;;3.72;;
47760;SDS011;33524;55.434;38.520;2022-10-22T09:41:25;5.65;;;3.00;;
47760;SDS011;33524;55.434;38.520;2022-10-22T09:44:02;8.95;;;3.90;;
47760;SDS011;33524;55.434;38.520;2022-10-22T09:46:43;4.72;;;3.33;;
47760;SDS011;33524;55.434;38.520;2022-10-22T09:49:18;7.00;;;4.00;;
47760;SDS011;33524;55.434;38.520;2022-10-22T09:51:59;12.15;;;4.10;;
47760;SDS011;33524;55.434;38.520;2022-10-22T09:57:15;5.07;;;3.60;;
47760;SDS011;33524;55.434;38.520;2022-10-22T09:59:54;5.15;;;3.53;;
47760;SDS011;33524;55.434;38.520;2022-10-22T10:02:29;3.90;;;3.00;;
47760;SDS011;33524;55.434;38.520;2022-10-22T10:05:16;4.68;;;3.55;;
47760;SDS011;33524;55.434;38.520;2022-10-22T10:07:56;6.00;;;3.85;;
47760;SDS011;33524;55.434;38.520;2022-10-22T10:14:02;5.07;;;2.75;;
47760;SDS011;33524;55.434;38.520;2022-10-22T10:26:02;4.80;;;3.20;;
47760;SDS011;33524;55.434;38.520;2022-10-22T10:28:46;7.22;;;3.80;;
47760;SDS011;33524;55.434;38.520;2022-10-22T10:49:51;5.53;;;3.33;;
47760;SDS011;33524;55.434;38.520;2022-10-22T10:52:36;4.05;;;3.05;;
47760;SDS011;33524;55.434;38.520;2022-10-22T10:55:28;4.15;;;3.05;;
47760;SDS011;33524;55.434;38.520;2022-10-22T10:58:28;4.47;;;3.28;;
47760;SDS011;33524;55.434;38.520;2022-10-22T11:01:18;3.83;;;2.53;;
47760;SDS011;33524;55.434;38.520;2022-10-22T11:07:23;3.70;;;2.33;;
47760;SDS011;33524;55.434;38.520;2022-10-22T11:10:12;3.55;;;2.35;;
47760;SDS011;33524;55.434;38.520;2022-10-22T11:16:02;4.45;;;2.80;;
47760;SDS011;33524;55.434;38.520;2022-10-22T11:19:19;6.55;;;2.67;;
47760;SDS011;33524;55.434;38.520;2022-10-22T11:22:27;5.12;;;2.80;;
47760;SDS011;33524;55.434;38.520;2022-10-22T11:25:34;4.47;;;2.75;;
47760;SDS011;33524;55.434;38.520;2022-10-22T11:28:19;4.40;;;2.97;;
47760;SDS011;33524;55.434;38.520;2022-10-22T11:31:15;4.00;;;2.47;;
47760;SDS011;33524;55.434;38.520;2022-10-22T11:33:57;5.80;;;2.85;;
47760;SDS011;33524;55.434;38.520;2022-10-22T11:37:04;4.90;;;3.35;;
47760;SDS011;33524;55.434;38.520;2022-10-22T11:39:44;4.32;;;2.28;;
47760;SDS011;33524;55.434;38.520;2022-10-22T11:42:39;5.32;;;2.80;;
47760;SDS011;33524;55.434;38.520;2022-10-22T11:50:46;3.60;;;2.30;;
47760;SDS011;33524;55.434;38.520;2022-10-22T11:56:24;4.95;;;2.65;;
47760;SDS011;33524;55.434;38.520;2022-10-22T11:58:59;3.55;;;2.50;;
47760;SDS011;33524;55.434;38.520;2022-10-22T12:01:40;4.00;;;2.67;;
47760;SDS011;33524;55.434;38.520;2022-10-22T12:04:14;3.80;;;2.40;;
47760;SDS011;33524;55.434;38.520;2022-10-22T12:07:24;3.40;;;2.37;;
47760;SDS011;33524;55.434;38.520;2022-10-22T12:10:10;5.30;;;2.53;;
47760;SDS011;33524;55.434;38.520;2022-10-22T12:13:03;4.25;;;2.72;;
47760;SDS011;33524;55.434;38.520;2022-10-22T12:15:49;4.00;;;2.40;;
47760;SDS011;33524;55.434;38.520;2022-10-22T12:18:26;3.50;;;2.50;;
47760;SDS011;33524;55.434;38.520;2022-10-22T12:21:14;5.82;;;2.72;;
47760;SDS011;33524;55.434;38.520;2022-10-22T12:23:50;2.85;;;1.73;;
47760;SDS011;33524;55.434;38.520;2022-10-22T12:26:33;3.33;;;2.10;;
47760;SDS011;33524;55.434;38.520;2022-10-22T12:29:11;3.70;;;1.85;;
47760;SDS011;33524;55.434;38.520;2022-10-22T12:34:28;4.50;;;2.10;;
47760;SDS011;33524;55.434;38.520;2022-10-22T12:37:03;2.90;;;1.73;;
47760;SDS011;33524;55.434;38.520;2022-10-22T12:39:33;3.35;;;2.08;;
47760;SDS011;33524;55.434;38.520;2022-10-22T12:42:06;3.00;;;2.15;;
47760;SDS011;33524;55.434;38.520;2022-10-22T12:44:47;3.90;;;2.35;;
47760;SDS011;33524;55.434;38.520;2022-10-22T12:47:19;3.67;;;2.10;;
47760;SDS011;33524;55.434;38.520;2022-10-22T12:49:48;3.90;;;2.10;;
47760;SDS011;33524;55.434;38.520;2022-10-22T12:52:24;3.95;;;2.10;;
47760;SDS011;33524;55.434;38.520;2022-10-22T12:55:07;3.55;;;2.10;;
47760;SDS011;33524;55.434;38.520;2022-10-22T12:57:54;5.85;;;3.15;;
47760;SDS011;33524;55.434;38.520;2022-10-22T13:00:31;5.10;;;2.80;;
47760;SDS011;33524;55.434;38.520;2022-10-22T13:03:14;8.73;;;4.85;;
47760;SDS011;33524;55.434;38.520;2022-10-22T13:11:38;5.25;;;3.40;;
47760;SDS011;33524;55.434;38.520;2022-10-22T13:14:28;3.42;;;2.08;;
47760;SDS011;33524;55.434;38.520;2022-10-22T13:17:05;5.22;;;3.12;;
47760;SDS011;33524;55.434;38.520;2022-10-22T13:19:46;7.30;;;3.62;;
47760;SDS011;33524;55.434;38.520;2022-10-22T13:25:18;4.20;;;2.65;;
47760;SDS011;33524;55.434;38.520;2022-10-22T13:30:54;6.43;;;2.72;;
47760;SDS011;33524;55.434;38.520;2022-10-22T13:33:38;4.97;;;2.55;;
47760;SDS011;33524;55.434;38.520;2022-10-22T13:36:23;4.12;;;2.55;;
47760;SDS011;33524;55.434;38.520;2022-10-22T13:38:56;6.18;;;3.20;;
47760;SDS011;33524;55.434;38.520;2022-10-22T13:41:36;11.20;;;5.22;;
47760;SDS011;33524;55.434;38.520;2022-10-22T13:44:08;9.45;;;3.67;;
47760;SDS011;33524;55.434;38.520;2022-10-22T13:46:41;10.40;;;5.07;;
47760;SDS011;33524;55.434;38.520;2022-10-22T13:49:19;9.02;;;4.40;;
47760;SDS011;33524;55.434;38.520;2022-10-22T13:51:50;8.07;;;3.95;;
47760;SDS011;33524;55.434;38.520;2022-10-22T13:54:33;10.45;;;5.40;;
47760;SDS011;33524;55.434;38.520;2022-10-22T13:57:08;15.00;;;7.87;;
47760;SDS011;33524;55.434;38.520;2022-10-22T13:59:45;12.37;;;6.25;;
47760;SDS011;33524;55.434;38.520;2022-10-22T14:02:23;10.95;;;5.57;;
47760;SDS011;33524;55.434;38.520;2022-10-22T14:05:05;7.97;;;4.90;;
47760;SDS011;33524;55.434;38.520;2022-10-22T14:07:46;7.80;;;4.78;;
47760;SDS011;33524;55.434;38.520;2022-10-22T14:10:27;7.90;;;3.97;;
47760;SDS011;33524;55.434;38.520;2022-10-22T14:13:01;6.55;;;4.03;;
47760;SDS011;33524;55.434;38.520;2022-10-22T14:15:40;4.00;;;2.95;;
47760;SDS011;33524;55.434;38.520;2022-10-22T14:18:25;7.15;;;3.15;;
47760;SDS011;33524;55.434;38.520;2022-10-22T14:21:02;7.78;;;3.92;;
47760;SDS011;33524;55.434;38.520;2022-10-22T14:23:39;6.10;;;3.80;;
47760;SDS011;33524;55.434;38.520;2022-10-22T14:26:19;6.07;;;3.67;;
47760;SDS011;33524;55.434;38.520;2022-10-22T14:28:54;9.07;;;4.05;;
47760;SDS011;33524;55.434;38.520;2022-10-22T14:31:47;8.23;;;3.47;;
47760;SDS011;33524;55.434;38.520;2022-10-22T14:34:27;6.75;;;3.97;;
47760;SDS011;33524;55.434;38.520;2022-10-22T14:37:18;7.82;;;4.45;;
47760;SDS011;33524;55.434;38.520;2022-10-22T14:39:52;8.10;;;3.95;;
47760;SDS011;33524;55.434;38.520;2022-10-22T14:42:41;9.00;;;4.40;;
47760;SDS011;33524;55.434;38.520;2022-10-22T14:45:23;6.85;;;4.72;;
47760;SDS011;33524;55.434;38.520;2022-10-22T14:47:56;8.07;;;4.00;;
47760;SDS011;33524;55.434;38.520;2022-10-22T14:50:28;8.05;;;3.35;;
47760;SDS011;33524;55.434;38.520;2022-10-22T14:53:02;6.32;;;2.90;;
47760;SDS011;33524;55.434;38.520;2022-10-22T14:55:33;6.20;;;3.55;;
47760;SDS011;33524;55.434;38.520;2022-10-22T14:58:19;5.07;;;3.08;;
47760;SDS011;33524;55.434;38.520;2022-10-22T15:01:06;5.57;;;3.37;;
47760;SDS011;33524;55.434;38.520;2022-10-22T15:03:38;5.68;;;2.85;;
47760;SDS011;33524;55.434;38.520;2022-10-22T15:06:11;9.27;;;5.28;;
47760;SDS011;33524;55.434;38.520;2022-10-22T15:08:43;10.13;;;6.45;;
47760;SDS011;33524;55.434;38.520;2022-10-22T15:11:16;10.88;;;5.72;;
47760;SDS011;33524;55.434;38.520;2022-10-22T15:13:52;14.18;;;7.53;;
47760;SDS011;33524;55.434;38.520;2022-10-22T15:16:28;15.90;;;6.60;;
47760;SDS011;33524;55.434;38.520;2022-10-22T15:19:04;11.50;;;5.43;;
47760;SDS011;33524;55.434;38.520;2022-10-22T15:21:34;11.48;;;5.65;;
47760;SDS011;33524;55.434;38.520;2022-10-22T15:24:07;11.07;;;6.93;;
47760;SDS011;33524;55.434;38.520;2022-10-22T15:26:39;11.15;;;7.20;;
47760;SDS011;33524;55.434;38.520;2022-10-22T15:29:15;11.20;;;5.82;;
47760;SDS011;33524;55.434;38.520;2022-10-22T15:31:47;12.80;;;7.32;;
47760;SDS011;33524;55.434;38.520;2022-10-22T15:34:27;10.05;;;6.55;;
47760;SDS011;33524;55.434;38.520;2022-10-22T15:36:59;9.10;;;5.32;;
47760;SDS011;33524;55.434;38.520;2022-10-22T15:39:46;9.40;;;5.28;;
47760;SDS011;33524;55.434;38.520;2022-10-22T15:42:17;11.85;;;5.25;;
47760;SDS011;33524;55.434;38.520;2022-10-22T15:44:56;9.23;;;5.10;;
47760;SDS011;33524;55.434;38.520;2022-10-22T15:47:44;7.50;;;4.05;;
47760;SDS011;33524;55.434;38.520;2022-10-22T15:50:38;7.15;;;3.85;;
47760;SDS011;33524;55.434;38.520;2022-10-22T15:53:16;4.20;;;2.83;;
47760;SDS011;33524;55.434;38.520;2022-10-22T15:55:50;6.00;;;3.45;;
47760;SDS011;33524;55.434;38.520;2022-10-22T15:58:27;4.97;;;3.05;;
47760;SDS011;33524;55.434;38.520;2022-10-22T16:01:02;5.32;;;3.03;;
47760;SDS011;33524;55.434;38.520;2022-10-22T16:03:42;5.35;;;3.08;;
47760;SDS011;33524;55.434;38.520;2022-10-22T16:06:12;6.53;;;3.08;;
47760;SDS011;33524;55.434;38.520;2022-10-22T16:08:51;5.15;;;3.22;;
47760;SDS011;33524;55.434;38.520;2022-10-22T16:11:36;6.35;;;3.47;;
47760;SDS011;33524;55.434;38.520;2022-10-22T16:14:14;9.13;;;4.43;;
47760;SDS011;33524;55.434;38.520;2022-10-22T16:16:49;8.80;;;5.35;;
47760;SDS011;33524;55.434;38.520;2022-10-22T16:19:28;7.55;;;5.25;;
47760;SDS011;33524;55.434;38.520;2022-10-22T16:22:01;15.00;;;9.48;;
47760;SDS011;33524;55.434;38.520;2022-10-22T16:24:45;14.30;;;9.27;;
47760;SDS011;33524;55.434;38.520;2022-10-22T16:27:20;16.08;;;9.68;;
47760;SDS011;33524;55.434;38.520;2022-10-22T16:29:56;12.98;;;8.10;;
47760;SDS011;33524;55.434;38.520;2022-10-22T16:32:38;14.02;;;8.02;;
47760;SDS011;33524;55.434;38.520;2022-10-22T16:35:14;12.80;;;8.52;;
47760;SDS011;33524;55.434;38.520;2022-10-22T16:37:49;10.00;;;7.55;;
47760;SDS011;33524;55.434;38.520;2022-10-22T16:40:26;10.25;;;6.28;;
47760;SDS011;33524;55.434;38.520;2022-10-22T16:43:05;8.73;;;5.82;;
47760;SDS011;33524;55.434;38.520;2022-10-22T16:45:45;10.00;;;5.90;;
47760;SDS011;33524;55.434;38.520;2022-10-22T16:48:21;8.00;;;5.35;;
47760;SDS011;33524;55.434;38.520;2022-10-22T16:50:52;10.35;;;5.75;;
47760;SDS011;33524;55.434;38.520;2022-10-22T16:53:29;7.03;;;5.28;;
47760;SDS011;33524;55.434;38.520;2022-10-22T16:56:09;8.35;;;5.32;;
47760;SDS011;33524;55.434;38.520;2022-10-22T16:58:48;11.00;;;6.43;;
47760;SDS011;33524;55.434;38.520;2022-10-22T17:01:38;8.52;;;6.32;;
47760;SDS011;33524;55.434;38.520;2022-10-22T17:04:13;12.40;;;6.93;;
47760;SDS011;33524;55.434;38.520;2022-10-22T17:06:49;13.43;;;7.22;;
47760;SDS011;33524;55.434;38.520;2022-10-22T17:09:40;12.68;;;6.70;;
47760;SDS011;33524;55.434;38.520;2022-10-22T17:12:19;11.55;;;7.57;;
47760;SDS011;33524;55.434;38.520;2022-10-22T17:14:55;11.52;;;7.82;;
47760;SDS011;33524;55.434;38.520;2022-10-22T17:17:33;10.70;;;8.05;;
47760;SDS011;33524;55.434;38.520;2022-10-22T17:20:02;12.80;;;8.68;;
47760;SDS011;33524;55.434;38.520;2022-10-22T17:22:39;9.90;;;7.18;;
47760;SDS011;33524;55.434;38.520;2022-10-22T17:26:03;10.15;;;6.68;;
47760;SDS011;33524;55.434;38.520;2022-10-22T17:28:23;13.98;;;6.95;;
47760;SDS011;33524;55.434;38.520;2022-10-22T17:33:44;12.13;;;7.55;;